首页
METAR-TAF:

METAR-TAF

机场 :

金蘭國際機場

金蘭市, 越南

纬度: 11-59-53N, 经度: 109-13-10E, 海拔: 12米

当前天气观测

该预报发布于28分钟前的10:30 UTC
风速4节,风向东转东南
温度 28°C
湿度 84%
气压 1005 hPa
能见度10公里或以上
少量云层高于1500英尺
散云层高于6000英尺

METAR: VVCR 201030Z 12004KT 9999 FEW015 SCT060 28/25 Q1005 NOSIG

时间: 17:58 (10:58 UTC)

预报

该预报发布于5小时和58分钟前的05:00 UTC
预报有效从20日的 06点(UTC)到 21日的 06点(UTC)
风速8节,风向东转东北
能见度10公里或以上
少量云层高于1700英尺
多云层高于5000英尺
短暂存在
从 20日的 08点(UTC)到 20日的 12点(UTC)
风速12节,风向西转西南
能見度: 4500
散云层高于1300英尺
少量云层高于1500英尺, 积雨云.
多云层高于5000英尺
雷暴, 雨
成为
从 20日的 13点(UTC)到 20日的 14点(UTC)
风速10节,风向西转西南

TAF: VVCR 200500Z 2006/2106 07008KT 9999 FEW017 BKN050 TEMPO 2008/2012 24012KT 4500 TSRA SCT013 FEW015CB BKN050 BECMG 2013/2014 25010KT

超过4000个机场的气象观测和天气预报(METAR&TAF报告)。

可查询的气象台以黄色和红色小点在地图上表示。

将鼠标移到小点上方,可查看气象台名称。

然后点击查看天气观测和预报。

如需切换地图:点击带黑十字的绿色按钮放大地图;点击带横线的绿色按钮缩小地图;或者点击绿色箭头查看邻近地区的地图。


METAR-TAF: